sensor_id;sensor_type;location;lat;lon;timestamp;temperature;humidity
24450;DHT22;13349;50.984;5.822;2024-02-28T00:02:07;2.10;99.90
24450;DHT22;13349;50.984;5.822;2024-02-28T00:04:34;2.10;99.90
24450;DHT22;13349;50.984;5.822;2024-02-28T00:07:01;2.10;99.90
24450;DHT22;13349;50.984;5.822;2024-02-28T00:09:28;2.20;99.90
24450;DHT22;13349;50.984;5.822;2024-02-28T00:11:55;2.10;99.90
24450;DHT22;13349;50.984;5.822;2024-02-28T00:14:23;2.10;99.90
24450;DHT22;13349;50.984;5.822;2024-02-28T00:16:50;1.90;99.90
24450;DHT22;13349;50.984;5.822;2024-02-28T00:19:17;1.80;99.90
24450;DHT22;13349;50.984;5.822;2024-02-28T00:21:45;1.80;99.90
24450;DHT22;13349;50.984;5.822;2024-02-28T00:24:12;2.00;99.90
24450;DHT22;13349;50.984;5.822;2024-02-28T00:26:40;1.90;99.90
24450;DHT22;13349;50.984;5.822;2024-02-28T00:29:07;1.80;99.90
24450;DHT22;13349;50.984;5.822;2024-02-28T00:31:36;1.70;99.90
24450;DHT22;13349;50.984;5.822;2024-02-28T00:34:03;1.70;99.90
24450;DHT22;13349;50.984;5.822;2024-02-28T00:36:30;1.60;99.90
24450;DHT22;13349;50.984;5.822;2024-02-28T00:38:57;1.40;99.90
24450;DHT22;13349;50.984;5.822;2024-02-28T00:41:24;1.40;99.90
24450;DHT22;13349;50.984;5.822;2024-02-28T00:43:51;1.50;99.90
24450;DHT22;13349;50.984;5.822;2024-02-28T00:46:18;1.40;99.90
24450;DHT22;13349;50.984;5.822;2024-02-28T00:48:46;1.40;99.90
24450;DHT22;13349;50.984;5.822;2024-02-28T00:51:13;1.20;99.90
24450;DHT22;13349;50.984;5.822;2024-02-28T00:53:40;1.30;99.90
24450;DHT22;13349;50.984;5.822;2024-02-28T00:56:08;1.20;99.90
24450;DHT22;13349;50.984;5.822;2024-02-28T00:58:35;1.20;99.90
24450;DHT22;13349;50.984;5.822;2024-02-28T01:01:04;1.20;99.90
24450;DHT22;13349;50.984;5.822;2024-02-28T01:03:32;1.10;99.90
24450;DHT22;13349;50.984;5.822;2024-02-28T01:06:00;1.20;99.90
24450;DHT22;13349;50.984;5.822;2024-02-28T01:08:29;1.20;99.90
24450;DHT22;13349;50.984;5.822;2024-02-28T01:10:56;1.20;99.90
24450;DHT22;13349;50.984;5.822;2024-02-28T01:13:24;1.30;99.90
24450;DHT22;13349;50.984;5.822;2024-02-28T01:15:51;1.30;99.90
24450;DHT22;13349;50.984;5.822;2024-02-28T01:18:18;1.20;99.90
24450;DHT22;13349;50.984;5.822;2024-02-28T01:20:45;1.20;99.90
24450;DHT22;13349;50.984;5.822;2024-02-28T01:23:13;1.50;99.90
24450;DHT22;13349;50.984;5.822;2024-02-28T01:25:40;1.40;99.90
24450;DHT22;13349;50.984;5.822;2024-02-28T01:28:07;1.40;99.90
24450;DHT22;13349;50.984;5.822;2024-02-28T01:30:34;1.40;99.90
24450;DHT22;13349;50.984;5.822;2024-02-28T01:33:01;1.40;99.90
24450;DHT22;13349;50.984;5.822;2024-02-28T01:35:28;1.50;99.90
24450;DHT22;13349;50.984;5.822;2024-02-28T01:37:54;1.50;99.90
24450;DHT22;13349;50.984;5.822;2024-02-28T01:40:23;1.80;99.90
24450;DHT22;13349;50.984;5.822;2024-02-28T01:42:50;1.90;99.90
24450;DHT22;13349;50.984;5.822;2024-02-28T01:45:17;1.70;99.90
24450;DHT22;13349;50.984;5.822;2024-02-28T01:47:43;1.90;99.90
24450;DHT22;13349;50.984;5.822;2024-02-28T01:50:10;1.90;99.90
24450;DHT22;13349;50.984;5.822;2024-02-28T01:52:38;2.00;99.90
24450;DHT22;13349;50.984;5.822;2024-02-28T01:55:05;2.00;99.90
24450;DHT22;13349;50.984;5.822;2024-02-28T01:57:34;2.00;99.90
24450;DHT22;13349;50.984;5.822;2024-02-28T02:00:03;1.80;99.90
24450;DHT22;13349;50.984;5.822;2024-02-28T02:02:30;1.80;99.90
24450;DHT22;13349;50.984;5.822;2024-02-28T02:04:57;1.70;99.90
24450;DHT22;13349;50.984;5.822;2024-02-28T02:07:25;1.90;99.90
24450;DHT22;13349;50.984;5.822;2024-02-28T02:09:52;1.70;99.90
24450;DHT22;13349;50.984;5.822;2024-02-28T02:12:19;2.10;99.90
24450;DHT22;13349;50.984;5.822;2024-02-28T02:14:48;2.40;99.90
24450;DHT22;13349;50.984;5.822;2024-02-28T02:17:15;2.50;99.90
24450;DHT22;13349;50.984;5.822;2024-02-28T02:19:42;2.70;99.90
24450;DHT22;13349;50.984;5.822;2024-02-28T02:22:09;2.70;99.90
24450;DHT22;13349;50.984;5.822;2024-02-28T02:24:38;2.70;99.90
24450;DHT22;13349;50.984;5.822;2024-02-28T02:27:05;2.60;99.90
24450;DHT22;13349;50.984;5.822;2024-02-28T02:29:32;2.70;99.90
24450;DHT22;13349;50.984;5.822;2024-02-28T02:31:59;2.60;99.90
24450;DHT22;13349;50.984;5.822;2024-02-28T02:34:26;2.60;99.90
24450;DHT22;13349;50.984;5.822;2024-02-28T02:36:52;2.60;99.90
24450;DHT22;13349;50.984;5.822;2024-02-28T02:39:19;2.70;99.90
24450;DHT22;13349;50.984;5.822;2024-02-28T02:41:47;2.60;99.90
24450;DHT22;13349;50.984;5.822;2024-02-28T02:44:14;2.50;99.90
24450;DHT22;13349;50.984;5.822;2024-02-28T02:46:41;2.40;99.90
24450;DHT22;13349;50.984;5.822;2024-02-28T02:49:08;2.50;99.90
24450;DHT22;13349;50.984;5.822;2024-02-28T02:51:35;2.40;99.90
24450;DHT22;13349;50.984;5.822;2024-02-28T02:54:02;2.20;99.90
24450;DHT22;13349;50.984;5.822;2024-02-28T02:56:29;2.10;99.90
24450;DHT22;13349;50.984;5.822;2024-02-28T02:58:57;2.10;99.90
24450;DHT22;13349;50.984;5.822;2024-02-28T03:01:24;2.00;99.90
24450;DHT22;13349;50.984;5.822;2024-02-28T03:03:51;2.10;99.90
24450;DHT22;13349;50.984;5.822;2024-02-28T03:06:18;2.10;99.90
24450;DHT22;13349;50.984;5.822;2024-02-28T03:08:45;2.20;99.90
24450;DHT22;13349;50.984;5.822;2024-02-28T03:11:12;1.90;99.90
24450;DHT22;13349;50.984;5.822;2024-02-28T03:13:39;2.00;99.90
24450;DHT22;13349;50.984;5.822;2024-02-28T03:16:08;2.00;99.90
24450;DHT22;13349;50.984;5.822;2024-02-28T03:18:35;2.10;99.90
24450;DHT22;13349;50.984;5.822;2024-02-28T03:21:01;2.10;99.90
24450;DHT22;13349;50.984;5.822;2024-02-28T03:23:28;2.10;99.90
24450;DHT22;13349;50.984;5.822;2024-02-28T03:25:55;2.20;99.90
24450;DHT22;13349;50.984;5.822;2024-02-28T03:28:22;2.20;99.90
24450;DHT22;13349;50.984;5.822;2024-02-28T03:30:49;2.10;99.90
24450;DHT22;13349;50.984;5.822;2024-02-28T03:33:17;2.30;99.90
24450;DHT22;13349;50.984;5.822;2024-02-28T03:35:44;2.00;99.90
24450;DHT22;13349;50.984;5.822;2024-02-28T03:38:11;2.00;99.90
24450;DHT22;13349;50.984;5.822;2024-02-28T03:40:38;2.10;99.90
24450;DHT22;13349;50.984;5.822;2024-02-28T03:43:05;2.00;99.90
24450;DHT22;13349;50.984;5.822;2024-02-28T03:45:36;1.90;99.90
24450;DHT22;13349;50.984;5.822;2024-02-28T03:48:03;1.90;99.90
24450;DHT22;13349;50.984;5.822;2024-02-28T03:50:31;1.90;99.90
24450;DHT22;13349;50.984;5.822;2024-02-28T03:52:58;1.90;99.90
24450;DHT22;13349;50.984;5.822;2024-02-28T03:55:25;1.90;99.90
24450;DHT22;13349;50.984;5.822;2024-02-28T03:57:52;2.00;99.90
24450;DHT22;13349;50.984;5.822;2024-02-28T04:00:19;2.00;99.90
24450;DHT22;13349;50.984;5.822;2024-02-28T04:02:46;2.00;99.90
24450;DHT22;13349;50.984;5.822;2024-02-28T04:05:13;2.00;99.90
24450;DHT22;13349;50.984;5.822;2024-02-28T04:07:41;2.10;99.90
24450;DHT22;13349;50.984;5.822;2024-02-28T04:10:08;2.10;99.90
24450;DHT22;13349;50.984;5.822;2024-02-28T04:12:36;2.30;99.90
24450;DHT22;13349;50.984;5.822;2024-02-28T04:15:03;2.20;99.90
24450;DHT22;13349;50.984;5.822;2024-02-28T04:17:31;2.40;99.90
24450;DHT22;13349;50.984;5.822;2024-02-28T04:19:58;2.30;99.90
24450;DHT22;13349;50.984;5.822;2024-02-28T04:22:27;2.40;99.90
24450;DHT22;13349;50.984;5.822;2024-02-28T04:24:56;2.40;99.90
24450;DHT22;13349;50.984;5.822;2024-02-28T04:27:23;2.50;99.90
24450;DHT22;13349;50.984;5.822;2024-02-28T04:29:49;2.30;99.90
24450;DHT22;13349;50.984;5.822;2024-02-28T04:32:16;2.30;99.90
24450;DHT22;13349;50.984;5.822;2024-02-28T04:34:43;2.50;99.90
24450;DHT22;13349;50.984;5.822;2024-02-28T04:37:11;2.50;99.90
24450;DHT22;13349;50.984;5.822;2024-02-28T04:39:38;2.50;99.90
24450;DHT22;13349;50.984;5.822;2024-02-28T04:42:06;2.20;99.90
24450;DHT22;13349;50.984;5.822;2024-02-28T04:44:33;2.40;99.90
24450;DHT22;13349;50.984;5.822;2024-02-28T04:47:01;2.30;99.90
24450;DHT22;13349;50.984;5.822;2024-02-28T04:49:28;2.50;99.90
24450;DHT22;13349;50.984;5.822;2024-02-28T04:51:55;2.30;99.90
24450;DHT22;13349;50.984;5.822;2024-02-28T04:54:21;2.10;99.90
24450;DHT22;13349;50.984;5.822;2024-02-28T04:56:48;2.30;99.90
24450;DHT22;13349;50.984;5.822;2024-02-28T04:59:18;2.10;99.90
24450;DHT22;13349;50.984;5.822;2024-02-28T05:01:45;2.30;99.90
24450;DHT22;13349;50.984;5.822;2024-02-28T05:04:13;2.00;99.90
24450;DHT22;13349;50.984;5.822;2024-02-28T05:06:40;2.00;99.90
24450;DHT22;13349;50.984;5.822;2024-02-28T05:09:07;2.30;99.90
24450;DHT22;13349;50.984;5.822;2024-02-28T05:11:34;2.30;99.90
24450;DHT22;13349;50.984;5.822;2024-02-28T05:14:01;2.10;99.90
24450;DHT22;13349;50.984;5.822;2024-02-28T05:16:29;2.00;99.90
24450;DHT22;13349;50.984;5.822;2024-02-28T05:18:57;2.00;99.90
24450;DHT22;13349;50.984;5.822;2024-02-28T05:21:24;2.00;99.90
24450;DHT22;13349;50.984;5.822;2024-02-28T05:23:51;2.00;99.90
24450;DHT22;13349;50.984;5.822;2024-02-28T05:26:18;2.30;99.90
24450;DHT22;13349;50.984;5.822;2024-02-28T05:28:45;2.10;99.90
24450;DHT22;13349;50.984;5.822;2024-02-28T05:31:21;2.10;99.90
24450;DHT22;13349;50.984;5.822;2024-02-28T05:33:50;2.10;99.90
24450;DHT22;13349;50.984;5.822;2024-02-28T05:36:17;2.20;99.90
24450;DHT22;13349;50.984;5.822;2024-02-28T05:38:44;2.30;99.90
24450;DHT22;13349;50.984;5.822;2024-02-28T05:41:11;2.20;99.90
24450;DHT22;13349;50.984;5.822;2024-02-28T05:43:38;2.20;99.90
24450;DHT22;13349;50.984;5.822;2024-02-28T05:46:05;2.30;99.90
24450;DHT22;13349;50.984;5.822;2024-02-28T05:48:32;2.10;99.90
24450;DHT22;13349;50.984;5.822;2024-02-28T05:51:01;2.40;99.90
24450;DHT22;13349;50.984;5.822;2024-02-28T05:53:28;2.20;99.90
24450;DHT22;13349;50.984;5.822;2024-02-28T05:56:01;2.20;99.90
24450;DHT22;13349;50.984;5.822;2024-02-28T05:58:28;2.20;99.90
24450;DHT22;13349;50.984;5.822;2024-02-28T06:00:55;2.30;99.90
24450;DHT22;13349;50.984;5.822;2024-02-28T06:03:22;2.40;99.90
24450;DHT22;13349;50.984;5.822;2024-02-28T06:05:49;2.30;99.90
24450;DHT22;13349;50.984;5.822;2024-02-28T06:08:19;2.20;99.90
24450;DHT22;13349;50.984;5.822;2024-02-28T06:10:46;2.30;99.90
24450;DHT22;13349;50.984;5.822;2024-02-28T06:13:13;2.40;99.90
24450;DHT22;13349;50.984;5.822;2024-02-28T06:15:40;2.40;99.90
24450;DHT22;13349;50.984;5.822;2024-02-28T06:18:08;2.30;99.90
24450;DHT22;13349;50.984;5.822;2024-02-28T06:20:35;2.30;99.90
24450;DHT22;13349;50.984;5.822;2024-02-28T06:23:02;2.20;99.90
24450;DHT22;13349;50.984;5.822;2024-02-28T06:25:31;2.30;99.90
24450;DHT22;13349;50.984;5.822;2024-02-28T06:27:59;2.30;99.90
24450;DHT22;13349;50.984;5.822;2024-02-28T06:30:28;2.40;99.90
24450;DHT22;13349;50.984;5.822;2024-02-28T06:32:55;2.40;99.90
24450;DHT22;13349;50.984;5.822;2024-02-28T06:35:21;2.60;99.90
24450;DHT22;13349;50.984;5.822;2024-02-28T06:37:48;2.40;99.90
24450;DHT22;13349;50.984;5.822;2024-02-28T06:40:17;2.70;99.90
24450;DHT22;13349;50.984;5.822;2024-02-28T06:42:45;2.70;99.90
24450;DHT22;13349;50.984;5.822;2024-02-28T06:45:12;2.50;99.90
24450;DHT22;13349;50.984;5.822;2024-02-28T06:47:39;2.80;99.90
24450;DHT22;13349;50.984;5.822;2024-02-28T06:50:07;2.60;99.90
24450;DHT22;13349;50.984;5.822;2024-02-28T06:52:34;2.80;99.90
24450;DHT22;13349;50.984;5.822;2024-02-28T06:55:01;2.70;99.90
24450;DHT22;13349;50.984;5.822;2024-02-28T06:57:35;2.90;99.90
24450;DHT22;13349;50.984;5.822;2024-02-28T07:00:04;2.90;99.90
24450;DHT22;13349;50.984;5.822;2024-02-28T07:02:33;2.90;99.90
24450;DHT22;13349;50.984;5.822;2024-02-28T07:05:01;3.10;99.90
24450;DHT22;13349;50.984;5.822;2024-02-28T07:07:28;2.80;99.90
24450;DHT22;13349;50.984;5.822;2024-02-28T07:09:56;3.00;99.90
24450;DHT22;13349;50.984;5.822;2024-02-28T07:12:23;3.20;99.90
24450;DHT22;13349;50.984;5.822;2024-02-28T07:14:50;3.00;99.90
24450;DHT22;13349;50.984;5.822;2024-02-28T07:17:18;3.20;99.90
24450;DHT22;13349;50.984;5.822;2024-02-28T07:19:45;3.10;99.90
24450;DHT22;13349;50.984;5.822;2024-02-28T07:22:12;3.10;99.90
24450;DHT22;13349;50.984;5.822;2024-02-28T07:24:39;3.10;99.90
24450;DHT22;13349;50.984;5.822;2024-02-28T07:27:07;3.10;99.90
24450;DHT22;13349;50.984;5.822;2024-02-28T07:29:36;3.30;99.90
24450;DHT22;13349;50.984;5.822;2024-02-28T07:32:03;3.30;99.90
24450;DHT22;13349;50.984;5.822;2024-02-28T07:34:31;3.10;99.90
24450;DHT22;13349;50.984;5.822;2024-02-28T07:36:59;3.30;99.90
24450;DHT22;13349;50.984;5.822;2024-02-28T07:39:26;3.30;99.90
24450;DHT22;13349;50.984;5.822;2024-02-28T07:41:53;3.20;99.90
24450;DHT22;13349;50.984;5.822;2024-02-28T07:44:20;3.20;99.90
24450;DHT22;13349;50.984;5.822;2024-02-28T07:46:47;3.30;99.90
24450;DHT22;13349;50.984;5.822;2024-02-28T07:49:16;3.30;99.90
24450;DHT22;13349;50.984;5.822;2024-02-28T07:51:44;3.60;99.90
24450;DHT22;13349;50.984;5.822;2024-02-28T07:54:11;3.50;99.90
24450;DHT22;13349;50.984;5.822;2024-02-28T07:56:38;3.60;99.90
24450;DHT22;13349;50.984;5.822;2024-02-28T07:59:05;3.50;99.90
24450;DHT22;13349;50.984;5.822;2024-02-28T08:01:32;3.60;99.90
24450;DHT22;13349;50.984;5.822;2024-02-28T08:03:59;3.50;99.90
24450;DHT22;13349;50.984;5.822;2024-02-28T08:06:27;3.70;99.90
24450;DHT22;13349;50.984;5.822;2024-02-28T08:08:55;3.70;99.90
24450;DHT22;13349;50.984;5.822;2024-02-28T08:11:22;3.70;99.90
24450;DHT22;13349;50.984;5.822;2024-02-28T08:13:50;3.90;99.90
24450;DHT22;13349;50.984;5.822;2024-02-28T08:16:17;4.00;99.90
24450;DHT22;13349;50.984;5.822;2024-02-28T08:18:44;3.90;99.90
24450;DHT22;13349;50.984;5.822;2024-02-28T08:21:11;3.90;99.90
24450;DHT22;13349;50.984;5.822;2024-02-28T08:23:38;4.10;99.90
24450;DHT22;13349;50.984;5.822;2024-02-28T08:26:06;4.50;99.90
24450;DHT22;13349;50.984;5.822;2024-02-28T08:28:33;4.20;99.90
24450;DHT22;13349;50.984;5.822;2024-02-28T08:31:00;4.30;99.90
24450;DHT22;13349;50.984;5.822;2024-02-28T08:33:27;4.30;99.90
24450;DHT22;13349;50.984;5.822;2024-02-28T08:35:54;4.30;99.90
24450;DHT22;13349;50.984;5.822;2024-02-28T08:38:21;4.40;99.90
24450;DHT22;13349;50.984;5.822;2024-02-28T08:40:48;4.40;99.90
24450;DHT22;13349;50.984;5.822;2024-02-28T08:43:16;4.40;99.90
24450;DHT22;13349;50.984;5.822;2024-02-28T08:45:43;4.30;99.90
24450;DHT22;13349;50.984;5.822;2024-02-28T08:48:10;4.40;99.90
24450;DHT22;13349;50.984;5.822;2024-02-28T08:50:37;4.40;99.90
24450;DHT22;13349;50.984;5.822;2024-02-28T08:53:05;4.40;99.90
24450;DHT22;13349;50.984;5.822;2024-02-28T08:55:32;4.30;99.90
24450;DHT22;13349;50.984;5.822;2024-02-28T08:57:59;4.40;99.90
24450;DHT22;13349;50.984;5.822;2024-02-28T09:00:27;4.50;99.90
24450;DHT22;13349;50.984;5.822;2024-02-28T09:02:54;4.50;99.90
24450;DHT22;13349;50.984;5.822;2024-02-28T09:05:21;4.60;99.90
24450;DHT22;13349;50.984;5.822;2024-02-28T09:07:48;4.70;99.90
24450;DHT22;13349;50.984;5.822;2024-02-28T09:10:17;4.80;99.90
24450;DHT22;13349;50.984;5.822;2024-02-28T09:12:49;4.90;99.90
24450;DHT22;13349;50.984;5.822;2024-02-28T09:15:16;4.90;99.90
24450;DHT22;13349;50.984;5.822;2024-02-28T09:17:44;5.10;99.90
24450;DHT22;13349;50.984;5.822;2024-02-28T09:20:12;5.20;99.90
24450;DHT22;13349;50.984;5.822;2024-02-28T09:22:38;5.20;99.90
24450;DHT22;13349;50.984;5.822;2024-02-28T09:25:06;5.20;99.90
24450;DHT22;13349;50.984;5.822;2024-02-28T09:27:34;5.40;99.90
24450;DHT22;13349;50.984;5.822;2024-02-28T09:30:01;5.40;99.90
24450;DHT22;13349;50.984;5.822;2024-02-28T09:32:28;5.50;99.90
24450;DHT22;13349;50.984;5.822;2024-02-28T09:34:57;5.40;99.90
24450;DHT22;13349;50.984;5.822;2024-02-28T09:37:24;5.30;99.90
24450;DHT22;13349;50.984;5.822;2024-02-28T09:39:51;5.40;99.90
24450;DHT22;13349;50.984;5.822;2024-02-28T09:42:18;5.50;99.90
24450;DHT22;13349;50.984;5.822;2024-02-28T09:44:45;5.60;99.90
24450;DHT22;13349;50.984;5.822;2024-02-28T09:47:13;5.60;99.90
24450;DHT22;13349;50.984;5.822;2024-02-28T09:49:40;5.80;99.90
24450;DHT22;13349;50.984;5.822;2024-02-28T09:52:09;6.00;99.90
24450;DHT22;13349;50.984;5.822;2024-02-28T09:54:36;6.20;99.90
24450;DHT22;13349;50.984;5.822;2024-02-28T09:57:03;6.40;99.90
24450;DHT22;13349;50.984;5.822;2024-02-28T09:59:30;6.70;99.90
24450;DHT22;13349;50.984;5.822;2024-02-28T10:01:57;6.90;99.90
24450;DHT22;13349;50.984;5.822;2024-02-28T10:04:26;7.10;99.90
24450;DHT22;13349;50.984;5.822;2024-02-28T10:06:54;7.00;99.90
24450;DHT22;13349;50.984;5.822;2024-02-28T10:09:22;7.00;99.90
24450;DHT22;13349;50.984;5.822;2024-02-28T10:11:50;7.00;99.90
24450;DHT22;13349;50.984;5.822;2024-02-28T10:14:17;7.00;99.90
24450;DHT22;13349;50.984;5.822;2024-02-28T10:16:44;7.20;99.90
24450;DHT22;13349;50.984;5.822;2024-02-28T10:19:11;7.20;99.90
24450;DHT22;13349;50.984;5.822;2024-02-28T10:21:38;7.10;99.90
24450;DHT22;13349;50.984;5.822;2024-02-28T10:24:05;6.90;99.90
24450;DHT22;13349;50.984;5.822;2024-02-28T10:26:41;6.90;99.90
24450;DHT22;13349;50.984;5.822;2024-02-28T10:29:08;7.20;99.90
24450;DHT22;13349;50.984;5.822;2024-02-28T10:31:35;7.60;99.90
24450;DHT22;13349;50.984;5.822;2024-02-28T10:34:02;7.80;99.90
24450;DHT22;13349;50.984;5.822;2024-02-28T10:36:31;8.30;99.90
24450;DHT22;13349;50.984;5.822;2024-02-28T10:38:59;8.50;99.90
24450;DHT22;13349;50.984;5.822;2024-02-28T10:41:26;8.50;99.90
24450;DHT22;13349;50.984;5.822;2024-02-28T10:43:56;8.60;99.90
24450;DHT22;13349;50.984;5.822;2024-02-28T10:46:23;8.50;99.90
24450;DHT22;13349;50.984;5.822;2024-02-28T10:48:50;8.50;99.90
24450;DHT22;13349;50.984;5.822;2024-02-28T10:51:20;8.30;99.90
24450;DHT22;13349;50.984;5.822;2024-02-28T10:53:49;8.20;99.90
24450;DHT22;13349;50.984;5.822;2024-02-28T10:56:16;8.40;99.90
24450;DHT22;13349;50.984;5.822;2024-02-28T10:58:47;8.50;99.90
24450;DHT22;13349;50.984;5.822;2024-02-28T11:01:18;8.70;99.90
24450;DHT22;13349;50.984;5.822;2024-02-28T11:03:46;8.60;99.90
24450;DHT22;13349;50.984;5.822;2024-02-28T11:06:16;8.70;99.90
24450;DHT22;13349;50.984;5.822;2024-02-28T11:08:45;8.60;99.90
24450;DHT22;13349;50.984;5.822;2024-02-28T11:11:13;9.00;99.90
24450;DHT22;13349;50.984;5.822;2024-02-28T11:13:50;9.30;99.90
24450;DHT22;13349;50.984;5.822;2024-02-28T11:16:25;9.40;99.90
24450;DHT22;13349;50.984;5.822;2024-02-28T11:18:52;9.70;99.90
24450;DHT22;13349;50.984;5.822;2024-02-28T11:21:19;9.70;99.90
24450;DHT22;13349;50.984;5.822;2024-02-28T11:23:46;9.90;99.90
24450;DHT22;13349;50.984;5.822;2024-02-28T11:26:14;9.60;99.90
24450;DHT22;13349;50.984;5.822;2024-02-28T11:28:41;9.70;99.90
24450;DHT22;13349;50.984;5.822;2024-02-28T11:31:08;9.80;99.90
24450;DHT22;13349;50.984;5.822;2024-02-28T11:33:36;9.90;99.90
24450;DHT22;13349;50.984;5.822;2024-02-28T11:36:04;9.80;99.90
24450;DHT22;13349;50.984;5.822;2024-02-28T11:38:31;9.90;99.90
24450;DHT22;13349;50.984;5.822;2024-02-28T11:40:58;10.20;99.90
24450;DHT22;13349;50.984;5.822;2024-02-28T11:43:25;10.60;99.90
24450;DHT22;13349;50.984;5.822;2024-02-28T11:45:52;10.50;99.90
24450;DHT22;13349;50.984;5.822;2024-02-28T11:48:20;10.40;99.90
24450;DHT22;13349;50.984;5.822;2024-02-28T11:50:49;10.20;99.90
24450;DHT22;13349;50.984;5.822;2024-02-28T11:53:17;10.30;99.90
24450;DHT22;13349;50.984;5.822;2024-02-28T11:55:45;10.50;99.90
24450;DHT22;13349;50.984;5.822;2024-02-28T11:58:13;10.70;99.90
24450;DHT22;13349;50.984;5.822;2024-02-28T12:00:46;11.20;99.90
24450;DHT22;13349;50.984;5.822;2024-02-28T12:03:13;11.10;99.90
24450;DHT22;13349;50.984;5.822;2024-02-28T12:05:42;10.60;99.90
24450;DHT22;13349;50.984;5.822;2024-02-28T12:08:11;10.30;99.90
24450;DHT22;13349;50.984;5.822;2024-02-28T12:10:38;10.40;99.90
24450;DHT22;13349;50.984;5.822;2024-02-28T12:13:05;10.40;99.90
24450;DHT22;13349;50.984;5.822;2024-02-28T12:15:33;10.30;99.90
24450;DHT22;13349;50.984;5.822;2024-02-28T12:18:00;10.20;1.00
24450;DHT22;13349;50.984;5.822;2024-02-28T12:20:33;10.60;99.90
24450;DHT22;13349;50.984;5.822;2024-02-28T12:23:00;10.70;99.90
24450;DHT22;13349;50.984;5.822;2024-02-28T12:25:29;10.80;99.90
24450;DHT22;13349;50.984;5.822;2024-02-28T12:27:56;11.00;1.00
24450;DHT22;13349;50.984;5.822;2024-02-28T12:30:23;11.10;44.10
24450;DHT22;13349;50.984;5.822;2024-02-28T12:32:50;11.60;1.00
24450;DHT22;13349;50.984;5.822;2024-02-28T12:35:17;11.90;99.90
24450;DHT22;13349;50.984;5.822;2024-02-28T12:37:44;11.60;1.00
24450;DHT22;13349;50.984;5.822;2024-02-28T12:40:11;11.10;99.90
24450;DHT22;13349;50.984;5.822;2024-02-28T12:42:41;11.00;99.90
24450;DHT22;13349;50.984;5.822;2024-02-28T12:45:08;11.40;1.00
24450;DHT22;13349;50.984;5.822;2024-02-28T12:47:35;11.40;1.00
24450;DHT22;13349;50.984;5.822;2024-02-28T12:50:03;11.00;1.00
24450;DHT22;13349;50.984;5.822;2024-02-28T12:52:31;11.10;1.00
24450;DHT22;13349;50.984;5.822;2024-02-28T12:54:58;11.30;1.00
24450;DHT22;13349;50.984;5.822;2024-02-28T12:57:23;11.40;99.90
24450;DHT22;13349;50.984;5.822;2024-02-28T12:59:52;11.20;99.90
24450;DHT22;13349;50.984;5.822;2024-02-28T13:02:19;10.80;99.90
24450;DHT22;13349;50.984;5.822;2024-02-28T13:04:46;10.90;99.90
24450;DHT22;13349;50.984;5.822;2024-02-28T13:07:14;10.90;99.90
24450;DHT22;13349;50.984;5.822;2024-02-28T13:09:41;10.90;99.90
24450;DHT22;13349;50.984;5.822;2024-02-28T13:12:08;10.60;94.20
24450;DHT22;13349;50.984;5.822;2024-02-28T13:14:35;10.40;99.90
24450;DHT22;13349;50.984;5.822;2024-02-28T13:17:03;10.30;99.90
24450;DHT22;13349;50.984;5.822;2024-02-28T13:19:31;10.40;99.90
24450;DHT22;13349;50.984;5.822;2024-02-28T13:21:58;10.50;99.90
24450;DHT22;13349;50.984;5.822;2024-02-28T13:24:25;10.50;99.90
24450;DHT22;13349;50.984;5.822;2024-02-28T13:26:52;10.60;99.90
24450;DHT22;13349;50.984;5.822;2024-02-28T13:29:19;10.60;99.90
24450;DHT22;13349;50.984;5.822;2024-02-28T13:31:46;10.60;99.90
24450;DHT22;13349;50.984;5.822;2024-02-28T13:34:15;10.80;99.90
24450;DHT22;13349;50.984;5.822;2024-02-28T13:36:42;10.90;99.90
24450;DHT22;13349;50.984;5.822;2024-02-28T13:39:09;10.80;1.00
24450;DHT22;13349;50.984;5.822;2024-02-28T13:41:37;10.60;1.00
24450;DHT22;13349;50.984;5.822;2024-02-28T13:44:04;10.80;69.80
24450;DHT22;13349;50.984;5.822;2024-02-28T13:46:31;11.10;99.90
24450;DHT22;13349;50.984;5.822;2024-02-28T13:48:58;11.20;1.00
24450;DHT22;13349;50.984;5.822;2024-02-28T13:51:26;11.30;82.50
24450;DHT22;13349;50.984;5.822;2024-02-28T13:53:53;11.50;1.00
24450;DHT22;13349;50.984;5.822;2024-02-28T13:56:20;11.70;1.00
24450;DHT22;13349;50.984;5.822;2024-02-28T13:58:47;11.60;1.00
24450;DHT22;13349;50.984;5.822;2024-02-28T14:01:14;11.60;1.00
24450;DHT22;13349;50.984;5.822;2024-02-28T14:03:41;11.40;1.00
24450;DHT22;13349;50.984;5.822;2024-02-28T14:06:08;10.80;1.00
24450;DHT22;13349;50.984;5.822;2024-02-28T14:08:36;10.60;1.00
24450;DHT22;13349;50.984;5.822;2024-02-28T14:11:03;10.50;99.90
24450;DHT22;13349;50.984;5.822;2024-02-28T14:13:30;10.50;99.90
24450;DHT22;13349;50.984;5.822;2024-02-28T14:15:57;10.50;99.90
24450;DHT22;13349;50.984;5.822;2024-02-28T14:18:24;10.60;99.90
24450;DHT22;13349;50.984;5.822;2024-02-28T14:20:51;10.40;99.90
24450;DHT22;13349;50.984;5.822;2024-02-28T14:23:18;10.10;99.90
24450;DHT22;13349;50.984;5.822;2024-02-28T14:25:47;10.10;1.00
24450;DHT22;13349;50.984;5.822;2024-02-28T14:28:14;10.20;1.00
24450;DHT22;13349;50.984;5.822;2024-02-28T14:30:42;10.10;1.00
24450;DHT22;13349;50.984;5.822;2024-02-28T14:33:10;10.10;1.00
24450;DHT22;13349;50.984;5.822;2024-02-28T14:35:37;10.00;1.00
24450;DHT22;13349;50.984;5.822;2024-02-28T14:38:04;9.90;1.00
24450;DHT22;13349;50.984;5.822;2024-02-28T14:40:32;9.80;1.00
24450;DHT22;13349;50.984;5.822;2024-02-28T14:43:00;9.90;1.00
24450;DHT22;13349;50.984;5.822;2024-02-28T14:45:27;10.20;24.60
24450;DHT22;13349;50.984;5.822;2024-02-28T14:47:54;10.20;1.00
24450;DHT22;13349;50.984;5.822;2024-02-28T14:50:21;10.30;1.00
24450;DHT22;13349;50.984;5.822;2024-02-28T14:52:48;10.20;1.00
24450;DHT22;13349;50.984;5.822;2024-02-28T14:55:15;10.20;1.00
24450;DHT22;13349;50.984;5.822;2024-02-28T14:57:42;10.20;5.30
24450;DHT22;13349;50.984;5.822;2024-02-28T15:00:11;10.20;99.90
24450;DHT22;13349;50.984;5.822;2024-02-28T15:02:40;10.20;96.30
24450;DHT22;13349;50.984;5.822;2024-02-28T15:05:07;10.30;99.90
24450;DHT22;13349;50.984;5.822;2024-02-28T15:07:34;10.30;99.90
24450;DHT22;13349;50.984;5.822;2024-02-28T15:10:02;10.30;47.60
24450;DHT22;13349;50.984;5.822;2024-02-28T15:12:30;10.30;1.00
24450;DHT22;13349;50.984;5.822;2024-02-28T15:14:58;10.30;1.00
24450;DHT22;13349;50.984;5.822;2024-02-28T15:17:26;10.30;1.00
24450;DHT22;13349;50.984;5.822;2024-02-28T15:19:53;10.40;1.00
24450;DHT22;13349;50.984;5.822;2024-02-28T15:22:21;10.40;1.00
24450;DHT22;13349;50.984;5.822;2024-02-28T15:24:47;10.30;1.00
24450;DHT22;13349;50.984;5.822;2024-02-28T15:27:14;10.20;1.00
24450;DHT22;13349;50.984;5.822;2024-02-28T15:29:41;10.10;1.00
24450;DHT22;13349;50.984;5.822;2024-02-28T15:32:08;10.20;1.00
24450;DHT22;13349;50.984;5.822;2024-02-28T15:34:37;10.20;1.00
24450;DHT22;13349;50.984;5.822;2024-02-28T15:37:04;10.10;1.00
24450;DHT22;13349;50.984;5.822;2024-02-28T15:39:31;10.10;1.00
24450;DHT22;13349;50.984;5.822;2024-02-28T15:41:58;10.20;1.00
24450;DHT22;13349;50.984;5.822;2024-02-28T15:44:26;10.30;1.00
24450;DHT22;13349;50.984;5.822;2024-02-28T15:46:53;10.30;1.00